sensor_id;sensor_type;location;lat;lon;timestamp;pressure;altitude;pressure_sealevel;temperature
41593;BMP180;28026;48.562;14.440;2023-03-14T00:01:48;92056.00;;;17.00
41593;BMP180;28026;48.562;14.440;2023-03-14T00:04:19;92055.00;;;17.00
41593;BMP180;28026;48.562;14.440;2023-03-14T00:06:50;92046.00;;;17.10
41593;BMP180;28026;48.562;14.440;2023-03-14T00:09:21;92045.00;;;17.10
41593;BMP180;28026;48.562;14.440;2023-03-14T00:11:53;92042.00;;;17.10
41593;BMP180;28026;48.562;14.440;2023-03-14T00:14:24;92043.00;;;17.10
41593;BMP180;28026;48.562;14.440;2023-03-14T00:16:55;92053.00;;;17.10
41593;BMP180;28026;48.562;14.440;2023-03-14T00:19:26;92056.00;;;17.10
41593;BMP180;28026;48.562;14.440;2023-03-14T00:21:56;92072.00;;;17.10
41593;BMP180;28026;48.562;14.440;2023-03-14T00:24:27;92074.00;;;17.10
41593;BMP180;28026;48.562;14.440;2023-03-14T00:26:58;92075.00;;;17.10
41593;BMP180;28026;48.562;14.440;2023-03-14T00:29:29;92077.00;;;17.10
41593;BMP180;28026;48.562;14.440;2023-03-14T00:32:00;92083.00;;;17.10
41593;BMP180;28026;48.562;14.440;2023-03-14T00:34:32;92085.00;;;17.10
41593;BMP180;28026;48.562;14.440;2023-03-14T00:37:03;92084.00;;;17.10
41593;BMP180;28026;48.562;14.440;2023-03-14T00:39:34;92085.00;;;17.10
41593;BMP180;28026;48.562;14.440;2023-03-14T00:42:05;92081.00;;;17.10
41593;BMP180;28026;48.562;14.440;2023-03-14T00:44:36;92095.00;;;17.10
41593;BMP180;28026;48.562;14.440;2023-03-14T00:47:07;92103.00;;;17.00
41593;BMP180;28026;48.562;14.440;2023-03-14T00:49:38;92109.00;;;17.00
41593;BMP180;28026;48.562;14.440;2023-03-14T00:52:09;92116.00;;;16.90
41593;BMP180;28026;48.562;14.440;2023-03-14T00:54:40;92114.00;;;16.90
41593;BMP180;28026;48.562;14.440;2023-03-14T00:57:11;92127.00;;;16.80
41593;BMP180;28026;48.562;14.440;2023-03-14T00:59:42;92122.00;;;16.70
41593;BMP180;28026;48.562;14.440;2023-03-14T01:02:13;92126.00;;;16.70
41593;BMP180;28026;48.562;14.440;2023-03-14T01:04:43;92121.00;;;16.60
41593;BMP180;28026;48.562;14.440;2023-03-14T01:07:15;92119.00;;;16.60
41593;BMP180;28026;48.562;14.440;2023-03-14T01:09:46;92117.00;;;16.60
41593;BMP180;28026;48.562;14.440;2023-03-14T01:12:17;92111.00;;;16.50
41593;BMP180;28026;48.562;14.440;2023-03-14T01:14:48;92117.00;;;16.50
41593;BMP180;28026;48.562;14.440;2023-03-14T01:17:19;92120.00;;;16.50
41593;BMP180;28026;48.562;14.440;2023-03-14T01:19:50;92115.00;;;16.40
41593;BMP180;28026;48.562;14.440;2023-03-14T01:22:21;92108.00;;;16.40
41593;BMP180;28026;48.562;14.440;2023-03-14T01:24:51;92118.00;;;16.40
41593;BMP180;28026;48.562;14.440;2023-03-14T01:27:23;92098.00;;;16.40
41593;BMP180;28026;48.562;14.440;2023-03-14T01:29:53;92101.00;;;16.40
41593;BMP180;28026;48.562;14.440;2023-03-14T01:32:25;92103.00;;;16.40
41593;BMP180;28026;48.562;14.440;2023-03-14T01:34:56;92113.00;;;16.40
41593;BMP180;28026;48.562;14.440;2023-03-14T01:37:27;92121.00;;;16.40
41593;BMP180;28026;48.562;14.440;2023-03-14T01:39:58;92106.00;;;16.40
41593;BMP180;28026;48.562;14.440;2023-03-14T01:42:29;92113.00;;;16.30
41593;BMP180;28026;48.562;14.440;2023-03-14T01:45:01;92106.00;;;16.30
41593;BMP180;28026;48.562;14.440;2023-03-14T01:47:32;92108.00;;;16.30
41593;BMP180;28026;48.562;14.440;2023-03-14T01:50:09;92092.00;;;16.30
41593;BMP180;28026;48.562;14.440;2023-03-14T01:52:49;92081.00;;;16.30
41593;BMP180;28026;48.562;14.440;2023-03-14T01:55:25;92083.00;;;16.30
41593;BMP180;28026;48.562;14.440;2023-03-14T01:58:03;92079.00;;;16.20
41593;BMP180;28026;48.562;14.440;2023-03-14T02:00:35;92090.00;;;15.90
41593;BMP180;28026;48.562;14.440;2023-03-14T02:03:14;92088.00;;;15.70
41593;BMP180;28026;48.562;14.440;2023-03-14T02:05:49;92096.00;;;15.50
41593;BMP180;28026;48.562;14.440;2023-03-14T02:08:22;92109.00;;;15.40
41593;BMP180;28026;48.562;14.440;2023-03-14T02:10:54;92120.00;;;15.50
41593;BMP180;28026;48.562;14.440;2023-03-14T02:13:26;92122.00;;;15.50
41593;BMP180;28026;48.562;14.440;2023-03-14T02:15:57;92111.00;;;15.60
41593;BMP180;28026;48.562;14.440;2023-03-14T02:18:28;92117.00;;;15.60
41593;BMP180;28026;48.562;14.440;2023-03-14T02:21:19;92109.00;;;15.70
41593;BMP180;28026;48.562;14.440;2023-03-14T02:24:17;92102.00;;;15.70
41593;BMP180;28026;48.562;14.440;2023-03-14T02:27:16;92094.00;;;15.70
41593;BMP180;28026;48.562;14.440;2023-03-14T02:30:06;92094.00;;;15.70
41593;BMP180;28026;48.562;14.440;2023-03-14T02:32:46;92093.00;;;15.70
41593;BMP180;28026;48.562;14.440;2023-03-14T02:35:26;92086.00;;;15.70
41593;BMP180;28026;48.562;14.440;2023-03-14T02:40:49;92096.00;;;15.70
41593;BMP180;28026;48.562;14.440;2023-03-14T02:43:20;92095.00;;;15.70
41593;BMP180;28026;48.562;14.440;2023-03-14T02:45:52;92085.00;;;15.70
41593;BMP180;28026;48.562;14.440;2023-03-14T02:48:37;92096.00;;;15.70
41593;BMP180;28026;48.562;14.440;2023-03-14T02:51:33;92096.00;;;15.70
41593;BMP180;28026;48.562;14.440;2023-03-14T02:54:05;92118.00;;;15.70
41593;BMP180;28026;48.562;14.440;2023-03-14T02:56:36;92125.00;;;15.70
41593;BMP180;28026;48.562;14.440;2023-03-14T02:59:07;92129.00;;;15.50
41593;BMP180;28026;48.562;14.440;2023-03-14T03:01:38;92135.00;;;15.30
41593;BMP180;28026;48.562;14.440;2023-03-14T03:04:09;92130.00;;;15.20
41593;BMP180;28026;48.562;14.440;2023-03-14T03:06:40;92141.00;;;15.10
41593;BMP180;28026;48.562;14.440;2023-03-14T03:09:11;92161.00;;;15.10
41593;BMP180;28026;48.562;14.440;2023-03-14T03:11:42;92149.00;;;15.00
41593;BMP180;28026;48.562;14.440;2023-03-14T03:14:13;92151.00;;;15.00
41593;BMP180;28026;48.562;14.440;2023-03-14T03:16:44;92136.00;;;15.10
41593;BMP180;28026;48.562;14.440;2023-03-14T03:19:14;92110.00;;;15.30
41593;BMP180;28026;48.562;14.440;2023-03-14T03:21:46;92133.00;;;15.50
41593;BMP180;28026;48.562;14.440;2023-03-14T03:24:17;92114.00;;;15.60
41593;BMP180;28026;48.562;14.440;2023-03-14T03:26:48;92106.00;;;15.70
41593;BMP180;28026;48.562;14.440;2023-03-14T03:29:19;92092.00;;;15.80
41593;BMP180;28026;48.562;14.440;2023-03-14T03:31:50;92094.00;;;15.90
41593;BMP180;28026;48.562;14.440;2023-03-14T03:34:21;92104.00;;;16.00
41593;BMP180;28026;48.562;14.440;2023-03-14T03:36:56;92106.00;;;16.10
41593;BMP180;28026;48.562;14.440;2023-03-14T03:39:27;92102.00;;;16.10
41593;BMP180;28026;48.562;14.440;2023-03-14T03:41:58;92117.00;;;16.20
41593;BMP180;28026;48.562;14.440;2023-03-14T03:44:29;92126.00;;;16.20
41593;BMP180;28026;48.562;14.440;2023-03-14T03:47:00;92112.00;;;16.20
41593;BMP180;28026;48.562;14.440;2023-03-14T03:49:32;92140.00;;;16.20
41593;BMP180;28026;48.562;14.440;2023-03-14T03:52:03;92148.00;;;16.30
41593;BMP180;28026;48.562;14.440;2023-03-14T03:54:34;92144.00;;;16.30
41593;BMP180;28026;48.562;14.440;2023-03-14T03:57:05;92150.00;;;16.30
41593;BMP180;28026;48.562;14.440;2023-03-14T03:59:36;92146.00;;;16.30
41593;BMP180;28026;48.562;14.440;2023-03-14T04:02:09;92139.00;;;16.30
41593;BMP180;28026;48.562;14.440;2023-03-14T04:04:40;92138.00;;;16.20
41593;BMP180;28026;48.562;14.440;2023-03-14T04:07:10;92140.00;;;16.30
41593;BMP180;28026;48.562;14.440;2023-03-14T04:09:44;92132.00;;;16.20
41593;BMP180;28026;48.562;14.440;2023-03-14T04:12:15;92136.00;;;16.20
41593;BMP180;28026;48.562;14.440;2023-03-14T04:14:46;92140.00;;;16.10
41593;BMP180;28026;48.562;14.440;2023-03-14T04:17:17;92145.00;;;16.00
41593;BMP180;28026;48.562;14.440;2023-03-14T04:19:48;92131.00;;;16.00
41593;BMP180;28026;48.562;14.440;2023-03-14T04:22:21;92147.00;;;16.00
41593;BMP180;28026;48.562;14.440;2023-03-14T04:24:52;92152.00;;;15.90
41593;BMP180;28026;48.562;14.440;2023-03-14T04:27:23;92153.00;;;15.80
41593;BMP180;28026;48.562;14.440;2023-03-14T04:29:54;92144.00;;;15.70
41593;BMP180;28026;48.562;14.440;2023-03-14T04:32:25;92148.00;;;15.70
41593;BMP180;28026;48.562;14.440;2023-03-14T04:34:56;92144.00;;;15.70
41593;BMP180;28026;48.562;14.440;2023-03-14T04:37:27;92144.00;;;15.70
41593;BMP180;28026;48.562;14.440;2023-03-14T04:39:58;92148.00;;;15.60
41593;BMP180;28026;48.562;14.440;2023-03-14T04:42:28;92146.00;;;15.60
41593;BMP180;28026;48.562;14.440;2023-03-14T04:44:59;92140.00;;;15.60
41593;BMP180;28026;48.562;14.440;2023-03-14T04:47:31;92139.00;;;15.60
41593;BMP180;28026;48.562;14.440;2023-03-14T04:50:02;92142.00;;;15.60
41593;BMP180;28026;48.562;14.440;2023-03-14T04:52:33;92145.00;;;15.70
41593;BMP180;28026;48.562;14.440;2023-03-14T04:55:04;92150.00;;;15.60
41593;BMP180;28026;48.562;14.440;2023-03-14T04:57:35;92160.00;;;15.70
41593;BMP180;28026;48.562;14.440;2023-03-14T05:00:07;92154.00;;;15.60
41593;BMP180;28026;48.562;14.440;2023-03-14T05:02:39;92139.00;;;15.60
41593;BMP180;28026;48.562;14.440;2023-03-14T05:05:11;92126.00;;;15.60
41593;BMP180;28026;48.562;14.440;2023-03-14T05:07:42;92130.00;;;15.50
41593;BMP180;28026;48.562;14.440;2023-03-14T05:10:13;92142.00;;;15.50
41593;BMP180;28026;48.562;14.440;2023-03-14T05:12:44;92129.00;;;15.50
41593;BMP180;28026;48.562;14.440;2023-03-14T05:15:15;92139.00;;;15.50
41593;BMP180;28026;48.562;14.440;2023-03-14T05:17:46;92139.00;;;15.50
41593;BMP180;28026;48.562;14.440;2023-03-14T05:20:17;92147.00;;;15.50
41593;BMP180;28026;48.562;14.440;2023-03-14T05:22:48;92163.00;;;15.50
41593;BMP180;28026;48.562;14.440;2023-03-14T05:25:19;92165.00;;;15.40
41593;BMP180;28026;48.562;14.440;2023-03-14T05:27:50;92166.00;;;15.40
41593;BMP180;28026;48.562;14.440;2023-03-14T05:30:24;92170.00;;;15.30
41593;BMP180;28026;48.562;14.440;2023-03-14T05:32:55;92166.00;;;15.20
41593;BMP180;28026;48.562;14.440;2023-03-14T05:35:26;92174.00;;;15.10
41593;BMP180;28026;48.562;14.440;2023-03-14T05:37:57;92170.00;;;15.00
41593;BMP180;28026;48.562;14.440;2023-03-14T05:40:28;92171.00;;;14.90
41593;BMP180;28026;48.562;14.440;2023-03-14T05:43:03;92162.00;;;14.80
41593;BMP180;28026;48.562;14.440;2023-03-14T05:45:38;92166.00;;;14.70
41593;BMP180;28026;48.562;14.440;2023-03-14T05:48:09;92158.00;;;14.70
41593;BMP180;28026;48.562;14.440;2023-03-14T05:50:40;92166.00;;;14.60
41593;BMP180;28026;48.562;14.440;2023-03-14T05:53:11;92160.00;;;14.60
41593;BMP180;28026;48.562;14.440;2023-03-14T05:55:42;92177.00;;;14.50
41593;BMP180;28026;48.562;14.440;2023-03-14T05:58:13;92174.00;;;14.40
41593;BMP180;28026;48.562;14.440;2023-03-14T06:00:43;92174.00;;;14.30
41593;BMP180;28026;48.562;14.440;2023-03-14T06:03:14;92152.00;;;14.30
41593;BMP180;28026;48.562;14.440;2023-03-14T06:05:45;92151.00;;;14.20
41593;BMP180;28026;48.562;14.440;2023-03-14T06:08:16;92156.00;;;14.20
41593;BMP180;28026;48.562;14.440;2023-03-14T06:10:47;92158.00;;;14.20
41593;BMP180;28026;48.562;14.440;2023-03-14T06:13:19;92147.00;;;14.20
41593;BMP180;28026;48.562;14.440;2023-03-14T06:15:50;92158.00;;;14.30
41593;BMP180;28026;48.562;14.440;2023-03-14T06:18:21;92164.00;;;14.30
41593;BMP180;28026;48.562;14.440;2023-03-14T06:20:56;92160.00;;;14.40
41593;BMP180;28026;48.562;14.440;2023-03-14T06:23:27;92171.00;;;14.40
41593;BMP180;28026;48.562;14.440;2023-03-14T06:25:58;92164.00;;;14.40
41593;BMP180;28026;48.562;14.440;2023-03-14T06:28:29;92161.00;;;14.40
41593;BMP180;28026;48.562;14.440;2023-03-14T06:31:00;92163.00;;;14.30
41593;BMP180;28026;48.562;14.440;2023-03-14T06:33:31;92162.00;;;14.40
41593;BMP180;28026;48.562;14.440;2023-03-14T06:36:03;92146.00;;;14.40
41593;BMP180;28026;48.562;14.440;2023-03-14T06:38:34;92138.00;;;14.40
41593;BMP180;28026;48.562;14.440;2023-03-14T06:41:07;92131.00;;;14.40
41593;BMP180;28026;48.562;14.440;2023-03-14T06:43:38;92131.00;;;14.40
41593;BMP180;28026;48.562;14.440;2023-03-14T06:46:09;92117.00;;;14.40
41593;BMP180;28026;48.562;14.440;2023-03-14T06:48:40;92113.00;;;14.40
41593;BMP180;28026;48.562;14.440;2023-03-14T06:51:11;92103.00;;;14.40
41593;BMP180;28026;48.562;14.440;2023-03-14T06:53:42;92102.00;;;14.40
41593;BMP180;28026;48.562;14.440;2023-03-14T06:56:13;92100.00;;;14.40
41593;BMP180;28026;48.562;14.440;2023-03-14T06:58:44;92106.00;;;14.30
41593;BMP180;28026;48.562;14.440;2023-03-14T07:01:25;92088.00;;;14.30
41593;BMP180;28026;48.562;14.440;2023-03-14T07:03:58;92098.00;;;14.30
41593;BMP180;28026;48.562;14.440;2023-03-14T07:06:29;92105.00;;;14.40
41593;BMP180;28026;48.562;14.440;2023-03-14T07:09:00;92096.00;;;14.40
41593;BMP180;28026;48.562;14.440;2023-03-14T07:11:32;92109.00;;;14.30
41593;BMP180;28026;48.562;14.440;2023-03-14T07:14:03;92108.00;;;14.30
41593;BMP180;28026;48.562;14.440;2023-03-14T07:16:34;92115.00;;;14.40
41593;BMP180;28026;48.562;14.440;2023-03-14T07:19:05;92107.00;;;14.40
41593;BMP180;28026;48.562;14.440;2023-03-14T07:21:36;92096.00;;;14.40
41593;BMP180;28026;48.562;14.440;2023-03-14T07:24:07;92081.00;;;14.50
41593;BMP180;28026;48.562;14.440;2023-03-14T07:26:38;92086.00;;;14.50
41593;BMP180;28026;48.562;14.440;2023-03-14T07:29:09;92077.00;;;14.60
41593;BMP180;28026;48.562;14.440;2023-03-14T07:31:40;92084.00;;;14.70
41593;BMP180;28026;48.562;14.440;2023-03-14T07:34:11;92081.00;;;14.70
41593;BMP180;28026;48.562;14.440;2023-03-14T07:36:42;92089.00;;;14.70
41593;BMP180;28026;48.562;14.440;2023-03-14T07:39:12;92080.00;;;14.80
41593;BMP180;28026;48.562;14.440;2023-03-14T07:41:43;92081.00;;;14.80
41593;BMP180;28026;48.562;14.440;2023-03-14T07:44:14;92085.00;;;14.80
41593;BMP180;28026;48.562;14.440;2023-03-14T07:46:45;92084.00;;;14.80
41593;BMP180;28026;48.562;14.440;2023-03-14T07:49:16;92082.00;;;14.80
41593;BMP180;28026;48.562;14.440;2023-03-14T07:51:48;92084.00;;;14.80
41593;BMP180;28026;48.562;14.440;2023-03-14T07:54:19;92102.00;;;14.80
41593;BMP180;28026;48.562;14.440;2023-03-14T07:56:51;92095.00;;;14.70
41593;BMP180;28026;48.562;14.440;2023-03-14T07:59:25;92100.00;;;14.70
41593;BMP180;28026;48.562;14.440;2023-03-14T08:01:55;92098.00;;;14.70
41593;BMP180;28026;48.562;14.440;2023-03-14T08:04:26;92108.00;;;14.70
41593;BMP180;28026;48.562;14.440;2023-03-14T08:06:57;92094.00;;;14.60
41593;BMP180;28026;48.562;14.440;2023-03-14T08:09:28;92105.00;;;14.70
41593;BMP180;28026;48.562;14.440;2023-03-14T08:11:59;92090.00;;;14.70
41593;BMP180;28026;48.562;14.440;2023-03-14T08:14:30;92106.00;;;14.70
41593;BMP180;28026;48.562;14.440;2023-03-14T08:17:01;92113.00;;;14.70
41593;BMP180;28026;48.562;14.440;2023-03-14T08:19:32;92102.00;;;14.60
41593;BMP180;28026;48.562;14.440;2023-03-14T08:22:04;92092.00;;;14.60
41593;BMP180;28026;48.562;14.440;2023-03-14T08:24:35;92093.00;;;14.60
41593;BMP180;28026;48.562;14.440;2023-03-14T08:27:07;92088.00;;;14.60
41593;BMP180;28026;48.562;14.440;2023-03-14T08:29:38;92092.00;;;14.70
41593;BMP180;28026;48.562;14.440;2023-03-14T08:32:10;92101.00;;;14.60
41593;BMP180;28026;48.562;14.440;2023-03-14T08:34:41;92105.00;;;14.70
41593;BMP180;28026;48.562;14.440;2023-03-14T08:37:12;92094.00;;;14.60
41593;BMP180;28026;48.562;14.440;2023-03-14T08:39:43;92099.00;;;14.70
41593;BMP180;28026;48.562;14.440;2023-03-14T08:42:14;92093.00;;;14.70
41593;BMP180;28026;48.562;14.440;2023-03-14T08:44:45;92099.00;;;14.70
41593;BMP180;28026;48.562;14.440;2023-03-14T08:47:16;92099.00;;;14.80
41593;BMP180;28026;48.562;14.440;2023-03-14T08:49:47;92102.00;;;14.80
41593;BMP180;28026;48.562;14.440;2023-03-14T08:52:17;92104.00;;;14.80
41593;BMP180;28026;48.562;14.440;2023-03-14T08:54:49;92109.00;;;14.80
41593;BMP180;28026;48.562;14.440;2023-03-14T08:57:20;92114.00;;;14.70
41593;BMP180;28026;48.562;14.440;2023-03-14T08:59:52;92116.00;;;14.80
41593;BMP180;28026;48.562;14.440;2023-03-14T09:02:26;92111.00;;;14.80
41593;BMP180;28026;48.562;14.440;2023-03-14T09:04:57;92109.00;;;14.70
41593;BMP180;28026;48.562;14.440;2023-03-14T09:07:28;92121.00;;;14.70
41593;BMP180;28026;48.562;14.440;2023-03-14T09:09:59;92107.00;;;14.60
41593;BMP180;28026;48.562;14.440;2023-03-14T09:12:29;92127.00;;;14.60
41593;BMP180;28026;48.562;14.440;2023-03-14T09:15:01;92126.00;;;14.60
41593;BMP180;28026;48.562;14.440;2023-03-14T09:17:32;92154.00;;;14.70
41593;BMP180;28026;48.562;14.440;2023-03-14T09:20:04;92143.00;;;14.60
41593;BMP180;28026;48.562;14.440;2023-03-14T09:22:39;92144.00;;;14.40
41593;BMP180;28026;48.562;14.440;2023-03-14T09:25:10;92150.00;;;14.40
41593;BMP180;28026;48.562;14.440;2023-03-14T09:27:41;92159.00;;;14.30
41593;BMP180;28026;48.562;14.440;2023-03-14T09:30:12;92154.00;;;14.30
41593;BMP180;28026;48.562;14.440;2023-03-14T09:32:43;92145.00;;;14.30
41593;BMP180;28026;48.562;14.440;2023-03-14T09:35:14;92157.00;;;14.40
41593;BMP180;28026;48.562;14.440;2023-03-14T09:37:45;92139.00;;;14.40
41593;BMP180;28026;48.562;14.440;2023-03-14T09:40:18;92130.00;;;14.40
41593;BMP180;28026;48.562;14.440;2023-03-14T09:42:53;92147.00;;;14.40
41593;BMP180;28026;48.562;14.440;2023-03-14T09:45:33;92118.00;;;14.30
41593;BMP180;28026;48.562;14.440;2023-03-14T09:48:19;92130.00;;;14.30
41593;BMP180;28026;48.562;14.440;2023-03-14T09:50:56;92122.00;;;14.20
41593;BMP180;28026;48.562;14.440;2023-03-14T09:53:50;92120.00;;;14.30
41593;BMP180;28026;48.562;14.440;2023-03-14T09:56:32;92125.00;;;14.30
41593;BMP180;28026;48.562;14.440;2023-03-14T09:59:09;92122.00;;;14.20
41593;BMP180;28026;48.562;14.440;2023-03-14T10:01:44;92132.00;;;14.30
41593;BMP180;28026;48.562;14.440;2023-03-14T10:04:21;92142.00;;;14.40
41593;BMP180;28026;48.562;14.440;2023-03-14T10:06:55;92133.00;;;14.30
41593;BMP180;28026;48.562;14.440;2023-03-14T10:09:26;92137.00;;;14.40
41593;BMP180;28026;48.562;14.440;2023-03-14T10:11:58;92144.00;;;14.40
41593;BMP180;28026;48.562;14.440;2023-03-14T10:14:38;92152.00;;;14.40
41593;BMP180;28026;48.562;14.440;2023-03-14T10:17:19;92151.00;;;14.40
41593;BMP180;28026;48.562;14.440;2023-03-14T10:19:57;92154.00;;;14.40
41593;BMP180;28026;48.562;14.440;2023-03-14T10:22:31;92141.00;;;14.40
41593;BMP180;28026;48.562;14.440;2023-03-14T10:25:10;92155.00;;;14.40
41593;BMP180;28026;48.562;14.440;2023-03-14T10:27:57;92134.00;;;14.50
41593;BMP180;28026;48.562;14.440;2023-03-14T10:30:45;92141.00;;;14.50
41593;BMP180;28026;48.562;14.440;2023-03-14T10:33:30;92136.00;;;14.40
41593;BMP180;28026;48.562;14.440;2023-03-14T10:36:21;92140.00;;;14.40
41593;BMP180;28026;48.562;14.440;2023-03-14T10:42:29;92151.00;;;14.20
41593;BMP180;28026;48.562;14.440;2023-03-14T10:45:06;92155.00;;;14.20
41593;BMP180;28026;48.562;14.440;2023-03-14T10:54:13;92160.00;;;14.10
41593;BMP180;28026;48.562;14.440;2023-03-14T10:57:00;92157.00;;;14.00
41593;BMP180;28026;48.562;14.440;2023-03-14T10:59:38;92155.00;;;14.00
41593;BMP180;28026;48.562;14.440;2023-03-14T11:05:56;92151.00;;;13.90
41593;BMP180;28026;48.562;14.440;2023-03-14T11:11:30;92167.00;;;13.90
41593;BMP180;28026;48.562;14.440;2023-03-14T11:20:55;92156.00;;;13.90
41593;BMP180;28026;48.562;14.440;2023-03-14T11:27:59;92162.00;;;14.00
41593;BMP180;28026;48.562;14.440;2023-03-14T11:31:07;92157.00;;;14.10
41593;BMP180;28026;48.562;14.440;2023-03-14T11:36:59;92147.00;;;14.20
41593;BMP180;28026;48.562;14.440;2023-03-14T11:39:56;92146.00;;;14.20
41593;BMP180;28026;48.562;14.440;2023-03-14T11:42:33;92155.00;;;14.30
41593;BMP180;28026;48.562;14.440;2023-03-14T11:45:15;92140.00;;;14.30
41593;BMP180;28026;48.562;14.440;2023-03-14T11:50:54;92138.00;;;14.20
41593;BMP180;28026;48.562;14.440;2023-03-14T11:59:19;92131.00;;;14.40
41593;BMP180;28026;48.562;14.440;2023-03-14T12:02:04;92140.00;;;14.30
41593;BMP180;28026;48.562;14.440;2023-03-14T12:05:20;92138.00;;;14.40
41593;BMP180;28026;48.562;14.440;2023-03-14T12:10:49;92125.00;;;14.30
41593;BMP180;28026;48.562;14.440;2023-03-14T12:13:21;92137.00;;;14.30
41593;BMP180;28026;48.562;14.440;2023-03-14T12:15:58;92133.00;;;14.30
41593;BMP180;28026;48.562;14.440;2023-03-14T12:18:35;92143.00;;;14.30
41593;BMP180;28026;48.562;14.440;2023-03-14T12:21:13;92137.00;;;14.20
41593;BMP180;28026;48.562;14.440;2023-03-14T12:23:56;92141.00;;;14.30
41593;BMP180;28026;48.562;14.440;2023-03-14T12:26:53;92136.00;;;14.30
41593;BMP180;28026;48.562;14.440;2023-03-14T12:29:26;92120.00;;;14.30
41593;BMP180;28026;48.562;14.440;2023-03-14T12:34:33;92112.00;;;14.30
41593;BMP180;28026;48.562;14.440;2023-03-14T12:40:03;92118.00;;;14.30
41593;BMP180;28026;48.562;14.440;2023-03-14T12:45:36;92134.00;;;14.30
41593;BMP180;28026;48.562;14.440;2023-03-14T12:48:24;92122.00;;;14.20
41593;BMP180;28026;48.562;14.440;2023-03-14T12:51:11;92122.00;;;14.20
41593;BMP180;28026;48.562;14.440;2023-03-14T12:57:48;92126.00;;;14.20
41593;BMP180;28026;48.562;14.440;2023-03-14T13:00:51;92114.00;;;14.30
41593;BMP180;28026;48.562;14.440;2023-03-14T13:03:50;92112.00;;;14.40
41593;BMP180;28026;48.562;14.440;2023-03-14T13:12:13;92076.00;;;14.40
41593;BMP180;28026;48.562;14.440;2023-03-14T13:14:50;92081.00;;;14.60
41593;BMP180;28026;48.562;14.440;2023-03-14T13:17:33;92078.00;;;14.70
41593;BMP180;28026;48.562;14.440;2023-03-14T13:23:01;92081.00;;;14.90
41593;BMP180;28026;48.562;14.440;2023-03-14T13:25:35;92081.00;;;15.00
41593;BMP180;28026;48.562;14.440;2023-03-14T13:28:10;92076.00;;;14.90
41593;BMP180;28026;48.562;14.440;2023-03-14T13:30:45;92077.00;;;15.00
41593;BMP180;28026;48.562;14.440;2023-03-14T13:33:21;92065.00;;;15.10
41593;BMP180;28026;48.562;14.440;2023-03-14T13:36:05;92072.00;;;15.30
41593;BMP180;28026;48.562;14.440;2023-03-14T13:38:36;92064.00;;;15.50
41593;BMP180;28026;48.562;14.440;2023-03-14T13:41:08;92076.00;;;15.50
41593;BMP180;28026;48.562;14.440;2023-03-14T13:43:44;92064.00;;;15.70
41593;BMP180;28026;48.562;14.440;2023-03-14T13:46:23;92071.00;;;15.70
41593;BMP180;28026;48.562;14.440;2023-03-14T13:49:00;92071.00;;;15.70
41593;BMP180;28026;48.562;14.440;2023-03-14T13:51:33;92078.00;;;15.70
41593;BMP180;28026;48.562;14.440;2023-03-14T13:54:20;92080.00;;;15.80
41593;BMP180;28026;48.562;14.440;2023-03-14T13:57:04;92078.00;;;15.70
41593;BMP180;28026;48.562;14.440;2023-03-14T13:59:36;92077.00;;;15.70
41593;BMP180;28026;48.562;14.440;2023-03-14T14:02:14;92073.00;;;15.80
41593;BMP180;28026;48.562;14.440;2023-03-14T14:04:47;92079.00;;;16.00
41593;BMP180;28026;48.562;14.440;2023-03-14T14:07:18;92077.00;;;16.00
41593;BMP180;28026;48.562;14.440;2023-03-14T14:09:52;92071.00;;;16.00
41593;BMP180;28026;48.562;14.440;2023-03-14T14:12:36;92090.00;;;16.00
41593;BMP180;28026;48.562;14.440;2023-03-14T14:15:27;92081.00;;;15.70
41593;BMP180;28026;48.562;14.440;2023-03-14T14:18:07;92082.00;;;15.60
41593;BMP180;28026;48.562;14.440;2023-03-14T14:20:45;92077.00;;;15.50
41593;BMP180;28026;48.562;14.440;2023-03-14T14:23:26;92074.00;;;15.50
41593;BMP180;28026;48.562;14.440;2023-03-14T14:25:59;92079.00;;;15.60
41593;BMP180;28026;48.562;14.440;2023-03-14T14:28:36;92085.00;;;15.60
41593;BMP180;28026;48.562;14.440;2023-03-14T14:33:54;92086.00;;;15.50
41593;BMP180;28026;48.562;14.440;2023-03-14T14:36:40;92084.00;;;15.20
41593;BMP180;28026;48.562;14.440;2023-03-14T14:39:26;92082.00;;;15.10
41593;BMP180;28026;48.562;14.440;2023-03-14T14:41:59;92084.00;;;14.90
41593;BMP180;28026;48.562;14.440;2023-03-14T14:44:34;92081.00;;;14.90
41593;BMP180;28026;48.562;14.440;2023-03-14T14:47:06;92081.00;;;14.80
41593;BMP180;28026;48.562;14.440;2023-03-14T14:49:37;92083.00;;;14.90
41593;BMP180;28026;48.562;14.440;2023-03-14T14:52:21;92082.00;;;14.80
41593;BMP180;28026;48.562;14.440;2023-03-14T14:55:02;92078.00;;;14.70
41593;BMP180;28026;48.562;14.440;2023-03-14T14:57:40;92082.00;;;14.60
41593;BMP180;28026;48.562;14.440;2023-03-14T15:00:25;92082.00;;;14.50
41593;BMP180;28026;48.562;14.440;2023-03-14T15:03:00;92086.00;;;14.50
41593;BMP180;28026;48.562;14.440;2023-03-14T15:05:32;92083.00;;;14.50
41593;BMP180;28026;48.562;14.440;2023-03-14T15:08:12;92090.00;;;14.40
41593;BMP180;28026;48.562;14.440;2023-03-14T15:10:44;92083.00;;;14.30
41593;BMP180;28026;48.562;14.440;2023-03-14T15:13:14;92081.00;;;14.20
41593;BMP180;28026;48.562;14.440;2023-03-14T15:15:46;92077.00;;;14.20
41593;BMP180;28026;48.562;14.440;2023-03-14T15:18:18;92081.00;;;14.20
41593;BMP180;28026;48.562;14.440;2023-03-14T15:20:50;92082.00;;;14.30
41593;BMP180;28026;48.562;14.440;2023-03-14T15:23:23;92090.00;;;14.40
41593;BMP180;28026;48.562;14.440;2023-03-14T15:25:54;92093.00;;;14.50
41593;BMP180;28026;48.562;14.440;2023-03-14T15:28:29;92084.00;;;14.60
41593;BMP180;28026;48.562;14.440;2023-03-14T15:31:00;92093.00;;;14.70
41593;BMP180;28026;48.562;14.440;2023-03-14T15:33:31;92088.00;;;14.80
41593;BMP180;28026;48.562;14.440;2023-03-14T15:36:06;92088.00;;;14.70
41593;BMP180;28026;48.562;14.440;2023-03-14T15:38:47;92099.00;;;14.80
41593;BMP180;28026;48.562;14.440;2023-03-14T15:41:19;92101.00;;;14.70
41593;BMP180;28026;48.562;14.440;2023-03-14T15:43:51;92097.00;;;14.80
41593;BMP180;28026;48.562;14.440;2023-03-14T15:46:23;92110.00;;;14.80